Time;durP1;ratioP1;P1;durP2;ratioP2;P2;SDS_P1;SDS_P2;PMS_P1;PMS_P2;Temp;Humidity;BMP_temperature;BMP_pressure;BME280_temperature;BME280_humidity;BME280_pressure;Samples;Min_cycle;Max_cycle;Signal;HPM_P1;HPM_P2
2023/05/03 00:02:01;;;;;;;3.65;1.67;;;;;;;12.15;36.31;99569.38;5052256;28;20562;-71
2023/05/03 00:04:27;;;;;;;7.65;1.80;;;;;;;12.23;36.21;99559.50;5035597;28;20087;-70
2023/05/03 00:06:54;;;;;;;4.55;1.80;;;;;;;12.13;36.65;99574.84;5052155;28;20072;-70
2023/05/03 00:09:21;;;;;;;2.55;1.60;;;;;;;12.23;36.82;99569.31;5035757;28;20076;-72
2023/05/03 00:11:47;;;;;;;7.63;1.63;;;;;;;12.07;36.63;99569.38;5017821;28;20044;-70
2023/05/03 00:14:13;;;;;;;2.83;1.73;;;;;;;12.11;37.08;99574.19;5068430;28;20498;-70
2023/05/03 00:16:39;;;;;;;5.88;1.60;;;;;;;11.97;37.04;99574.88;5051551;28;20041;-70
2023/05/03 00:19:05;;;;;;;3.05;1.70;;;;;;;12.03;37.40;99557.38;5035303;28;20154;-70
2023/05/03 00:21:31;;;;;;;3.70;1.80;;;;;;;11.97;37.25;99552.75;5019105;28;20040;-70
2023/05/03 00:23:57;;;;;;;4.00;1.77;;;;;;;11.97;37.64;99552.75;5019405;28;20553;-70
2023/05/03 00:26:25;;;;;;;4.70;1.65;;;;;;;11.72;37.99;99559.91;5037140;28;20068;-70
2023/05/03 00:28:51;;;;;;;5.80;1.88;;;;;;;11.83;37.92;99563.09;5037977;28;20040;-70
2023/05/03 00:31:18;;;;;;;4.45;1.70;;;;;;;11.70;38.14;99557.44;5037858;28;20040;-70
2023/05/03 00:33:44;;;;;;;4.85;2.08;;;;;;;11.82;38.18;99544.63;5070730;28;20044;-71
2023/05/03 00:36:12;;;;;;;6.82;2.40;;;;;;;11.71;38.48;99547.63;5037569;28;20040;-70
2023/05/03 00:38:39;;;;;;;3.50;2.13;;;;;;;11.71;38.65;99551.13;5037594;28;20052;-69
2023/05/03 00:41:05;;;;;;;7.82;2.58;;;;;;;11.57;38.68;99548.25;5037404;28;20548;-69
2023/05/03 00:43:33;;;;;;;5.85;2.65;;;;;;;11.68;38.79;99543.47;5053886;28;20371;-70
2023/05/03 00:46:00;;;;;;;6.05;2.13;;;;;;;11.60;38.74;99537.28;5037765;28;20048;-70
2023/05/03 00:48:26;;;;;;;4.28;2.28;;;;;;;11.58;38.81;99552.56;5037417;28;20403;-70
2023/05/03 00:50:53;;;;;;;8.75;2.53;;;;;;;11.62;38.88;99538.78;5037758;28;20474;-70
2023/05/03 00:53:21;;;;;;;7.78;2.30;;;;;;;11.72;39.00;99534.16;5016555;28;20045;-71
2023/05/03 00:55:47;;;;;;;4.97;2.00;;;;;;;11.70;38.85;99530.00;4984201;28;20151;-70
2023/05/03 00:58:13;;;;;;;4.40;1.88;;;;;;;11.58;38.88;99529.47;5000334;28;20068;-70
2023/05/03 01:00:39;;;;;;;3.70;1.88;;;;;;;11.68;38.86;99529.34;4983854;28;20041;-70
2023/05/03 01:03:05;;;;;;;7.85;1.85;;;;;;;11.61;38.83;99536.28;5001229;28;20045;-70
2023/05/03 01:05:40;;;;;;;6.35;1.98;;;;;;;11.85;38.87;99542.44;5020088;28;20063;-70
2023/05/03 01:08:10;;;;;;;4.18;2.17;;;;;;;11.79;38.99;99526.34;5003780;28;20056;-69
2023/05/03 01:10:42;;;;;;;5.72;1.70;;;;;;;11.58;38.81;99531.28;5003863;28;20556;-69
2023/05/03 01:13:22;;;;;;;3.33;1.50;;;;;;;11.97;38.89;99520.81;5020053;28;20053;-70
2023/05/03 01:16:29;;;;;;;3.95;1.48;;;;;;;11.98;38.61;99512.66;5020061;28;20455;-70
2023/05/03 01:19:00;;;;;;;1.73;1.40;;;;;;;11.83;38.62;99501.03;5002880;28;20061;-69
2023/05/03 01:21:29;;;;;;;12.65;1.90;;;;;;;11.86;38.59;99504.19;5003960;28;20091;-70
2023/05/03 01:24:01;;;;;;;2.92;1.50;;;;;;;12.09;38.44;99506.97;5003350;28;20045;-69
2023/05/03 01:26:28;;;;;;;4.78;2.08;;;;;;;11.69;38.58;99496.41;5019913;28;20136;-69
2023/05/03 01:28:55;;;;;;;2.88;1.60;;;;;;;11.72;38.37;99496.91;4987677;28;20529;-70
2023/05/03 01:31:27;;;;;;;4.15;1.50;;;;;;;12.05;38.55;99500.34;5015299;28;20461;-69
2023/05/03 01:34:18;;;;;;;2.67;1.50;;;;;;;12.17;38.40;99522.94;5024208;28;20102;-69
2023/05/03 01:36:45;;;;;;;9.15;1.95;;;;;;;11.84;38.71;99505.34;5057040;28;20043;-69
2023/05/03 01:39:23;;;;;;;3.08;1.88;;;;;;;12.07;38.62;99503.63;5040388;28;20036;-70
2023/05/03 01:41:50;;;;;;;2.53;1.35;;;;;;;11.81;39.01;99509.19;5056868;28;20354;-69
2023/05/03 01:44:19;;;;;;;1.92;1.45;;;;;;;11.77;38.79;99505.22;5040747;28;20087;-69
2023/05/03 01:46:46;;;;;;;4.53;1.50;;;;;;;11.81;38.88;99503.03;5073600;28;20052;-70
2023/05/03 01:49:12;;;;;;;6.80;1.48;;;;;;;11.71;38.58;99489.09;5040137;28;20068;-70
2023/05/03 01:51:38;;;;;;;3.78;1.38;;;;;;;11.88;38.30;99523.47;5039981;28;20067;-69
2023/05/03 01:54:05;;;;;;;3.38;1.90;;;;;;;11.84;38.52;99482.25;5039981;28;20079;-70
2023/05/03 01:56:35;;;;;;;2.08;1.42;;;;;;;12.19;38.15;99494.31;5040269;28;20048;-70
2023/05/03 01:59:02;;;;;;;2.13;1.25;;;;;;;12.05;38.02;99484.38;5073273;28;20059;-71
2023/05/03 02:01:28;;;;;;;2.75;1.60;;;;;;;11.98;37.93;99479.91;5056505;28;20540;-70
2023/05/03 02:03:54;;;;;;;4.78;1.85;;;;;;;11.86;38.31;99476.75;5040059;28;20119;-70
2023/05/03 02:06:20;;;;;;;7.75;1.90;;;;;;;12.01;38.04;99472.38;5023456;28;20055;-71
2023/05/03 02:08:46;;;;;;;5.47;3.25;;;;;;;11.93;38.03;99477.75;5056565;28;20040;-69
2023/05/03 02:11:13;;;;;;;4.05;2.30;;;;;;;12.14;38.03;99474.50;5039738;28;20043;-71
2023/05/03 02:13:59;;;;;;;2.65;1.80;;;;;;;11.97;38.42;99473.72;5058892;28;20483;-71
2023/05/03 02:16:27;;;;;;;4.85;1.90;;;;;;;12.14;38.21;99461.19;5022655;28;20068;-71
2023/05/03 02:18:58;;;;;;;6.38;1.98;;;;;;;11.97;37.92;99471.06;5023873;28;20093;-70
2023/05/03 02:21:25;;;;;;;2.13;1.58;;;;;;;12.06;38.25;99463.88;5039988;28;20143;-70
2023/05/03 02:23:52;;;;;;;5.28;1.58;;;;;;;12.14;37.86;99477.16;5072342;28;20052;-70
2023/05/03 02:26:21;;;;;;;2.13;1.48;;;;;;;12.17;37.95;99467.00;5056307;28;20044;-71
2023/05/03 02:28:47;;;;;;;4.72;1.33;;;;;;;12.02;37.90;99465.22;5039463;28;20051;-70
2023/05/03 02:31:13;;;;;;;2.63;1.65;;;;;;;12.10;38.03;99463.38;5072433;28;20143;-70
2023/05/03 02:33:41;;;;;;;3.25;1.42;;;;;;;12.15;37.89;99470.88;5039609;28;20044;-70
2023/05/03 02:36:08;;;;;;;3.65;1.58;;;;;;;12.31;37.56;99471.63;5055765;28;20036;-71
2023/05/03 02:38:33;;;;;;;3.65;1.40;;;;;;;12.32;37.55;99469.78;5038967;28;20044;-70
2023/05/03 02:41:00;;;;;;;2.55;1.48;;;;;;;12.32;37.57;99465.28;5038553;28;20048;-71
2023/05/03 02:43:26;;;;;;;3.25;1.20;;;;;;;12.34;37.55;99465.09;5022768;28;20037;-70
2023/05/03 02:45:53;;;;;;;3.22;1.65;;;;;;;12.45;37.74;99462.91;5022069;28;20052;-71
2023/05/03 02:48:19;;;;;;;3.50;1.17;;;;;;;12.46;37.48;99463.72;5071860;28;20351;-70
2023/05/03 02:50:45;;;;;;;3.65;1.42;;;;;;;12.43;37.46;99469.38;5038512;28;20513;-71
2023/05/03 02:53:12;;;;;;;3.65;1.45;;;;;;;12.73;37.50;99480.03;5038678;28;20086;-71
2023/05/03 02:55:39;;;;;;;5.20;1.48;;;;;;;12.43;37.21;99480.88;5055377;28;20044;-70
2023/05/03 02:58:06;;;;;;;6.32;1.38;;;;;;;12.48;37.31;99472.38;5038542;28;20048;-71
2023/05/03 03:00:33;;;;;;;3.45;1.58;;;;;;;12.48;37.30;99473.22;5038321;28;20043;-70
2023/05/03 03:02:59;;;;;;;2.10;1.10;;;;;;;12.51;37.41;99464.88;5022258;28;20044;-70
2023/05/03 03:05:25;;;;;;;2.10;1.30;;;;;;;12.69;37.41;99464.59;5038404;28;20052;-70
2023/05/03 03:07:51;;;;;;;4.25;1.30;;;;;;;12.44;37.77;99468.41;5054903;28;20036;-71
2023/05/03 03:10:19;;;;;;;3.75;1.38;;;;;;;12.69;37.63;99476.09;5038661;28;20143;-71
2023/05/03 03:12:47;;;;;;;2.33;1.45;;;;;;;12.47;37.87;99466.19;5022492;28;20052;-69
2023/05/03 03:15:23;;;;;;;1.60;1.10;;;;;;;12.56;37.53;99459.81;5087762;28;20031;-68
2023/05/03 03:17:50;;;;;;;3.50;1.33;;;;;;;12.69;37.72;99475.25;5058430;28;20051;-68
2023/05/03 03:20:16;;;;;;;7.43;1.50;;;;;;;12.72;38.06;99470.41;5074683;28;20044;-70
2023/05/03 03:22:47;;;;;;;3.13;1.23;;;;;;;12.77;37.74;99484.03;5042187;28;20094;-70
2023/05/03 03:25:17;;;;;;;4.13;1.45;;;;;;;13.04;37.60;99475.56;5040792;28;20541;-68
2023/05/03 03:27:44;;;;;;;2.95;1.42;;;;;;;13.09;37.77;99488.34;5041572;28;20138;-72
2023/05/03 03:30:13;;;;;;;3.80;1.42;;;;;;;13.02;37.05;99482.09;5058388;28;20051;-68
2023/05/03 03:33:03;;;;;;;4.03;1.35;;;;;;;13.03;37.25;99487.22;5078157;28;20470;-72
2023/05/03 03:35:47;;;;;;;4.05;1.30;;;;;;;13.46;36.99;99488.41;5043505;28;20086;-69
2023/05/03 03:38:29;;;;;;;3.33;1.40;;;;;;;13.13;37.21;99466.47;5073979;28;20517;-71
2023/05/03 03:41:01;;;;;;;5.90;1.65;;;;;;;13.21;37.13;99482.44;5074284;28;20123;-70
2023/05/03 03:43:29;;;;;;;5.35;1.30;;;;;;;13.46;37.23;99489.22;5040240;28;20449;-70
2023/05/03 03:45:56;;;;;;;4.45;1.65;;;;;;;13.32;36.82;99482.00;5056705;28;20047;-72
2023/05/03 03:48:25;;;;;;;7.30;1.50;;;;;;;13.64;36.91;99491.56;5030736;28;20044;-78
2023/05/03 03:50:53;;;;;;;1.73;1.08;;;;;;;13.37;36.58;99489.47;5029218;28;20053;-70
2023/05/03 03:53:26;;;;;;;5.28;1.52;;;;;;;13.74;36.88;99480.63;5013555;28;20057;-71
2023/05/03 03:55:52;;;;;;;6.80;1.50;;;;;;;13.48;36.32;99492.53;4980968;28;20438;-70
2023/05/03 03:58:22;;;;;;;2.13;1.50;;;;;;;13.52;36.47;99496.50;4980930;28;20565;-74
2023/05/03 04:00:51;;;;;;;3.90;1.45;;;;;;;13.61;36.44;99472.44;4981395;28;20049;-74
2023/05/03 04:06:48;;;;;;;7.30;1.20;;;;;;;13.57;36.34;99483.47;4969437;28;20058;-72
2023/05/03 04:09:17;;;;;;;3.25;1.38;;;;;;;13.86;36.21;99487.19;4934728;29;20616;-72
2023/05/03 04:11:45;;;;;;;4.82;1.40;;;;;;;13.77;36.04;99486.44;4933552;29;20051;-72
2023/05/03 04:14:12;;;;;;;5.07;1.42;;;;;;;13.88;35.86;99487.84;4920421;29;20086;-71
2023/05/03 04:16:42;;;;;;;7.03;1.50;;;;;;;14.19;35.68;99485.84;4920379;29;20055;-71
2023/05/03 04:19:10;;;;;;;4.68;1.55;;;;;;;14.24;35.44;99484.28;4951893;29;20099;-71
2023/05/03 04:21:39;;;;;;;5.32;1.92;;;;;;;14.08;35.63;99476.44;4909969;29;20057;-71
2023/05/03 04:24:06;;;;;;;11.20;1.92;;;;;;;14.15;35.44;99488.03;4897644;29;20259;-71
2023/05/03 04:26:32;;;;;;;9.55;1.83;;;;;;;14.12;35.26;99479.56;4882739;29;20067;-71
2023/05/03 04:29:18;;;;;;;5.45;1.20;;;;;;;14.32;34.98;99468.16;4865610;29;20068;-70
2023/05/03 04:31:46;;;;;;;1.88;1.30;;;;;;;14.24;35.12;99478.94;4876066;29;20061;-71
2023/05/03 04:34:21;;;;;;;2.45;1.42;;;;;;;14.13;35.71;99487.38;4860229;29;20086;-70
2023/05/03 04:36:50;;;;;;;5.93;1.25;;;;;;;14.07;36.19;99480.09;4860395;29;20053;-71
2023/05/03 04:39:16;;;;;;;3.42;1.50;;;;;;;13.95;36.54;99497.59;4838322;29;20067;-70
2023/05/03 04:41:45;;;;;;;2.88;1.40;;;;;;;14.09;36.38;99475.41;4920494;29;20066;-71
2023/05/03 04:44:13;;;;;;;7.68;3.75;;;;;;;14.14;38.30;99497.06;4904672;29;20142;-70
2023/05/03 04:46:42;;;;;;;2.53;1.92;;;;;;;14.00;37.59;99483.69;4920289;29;20055;-69
2023/05/03 04:49:08;;;;;;;6.65;1.65;;;;;;;14.02;39.41;99493.19;4920077;29;20052;-70
2023/05/03 04:51:35;;;;;;;2.95;1.30;;;;;;;13.92;39.50;99491.78;4903598;29;20548;-71
2023/05/03 04:54:02;;;;;;;3.13;1.30;;;;;;;13.83;39.47;99504.41;4935344;28;20047;-70
2023/05/03 04:56:30;;;;;;;4.85;1.60;;;;;;;13.54;39.96;99502.50;4919709;29;20142;-70
2023/05/03 04:59:07;;;;;;;2.33;1.30;;;;;;;13.84;40.44;99507.91;4918473;29;20587;-71
2023/05/03 05:01:36;;;;;;;7.82;1.85;;;;;;;13.86;40.54;99519.22;4920128;29;20062;-71
2023/05/03 05:04:04;;;;;;;3.92;1.38;;;;;;;14.02;40.36;99500.38;4887584;29;20043;-70
2023/05/03 05:06:37;;;;;;;4.80;1.40;;;;;;;13.87;40.45;99502.19;4921081;29;20048;-70
2023/05/03 05:09:06;;;;;;;3.90;1.27;;;;;;;13.91;40.20;99498.16;4920237;29;20497;-71
2023/05/03 05:11:33;;;;;;;4.60;1.75;;;;;;;13.88;40.84;99509.19;4920361;29;20090;-70
2023/05/03 05:14:00;;;;;;;3.65;1.55;;;;;;;13.86;40.45;99508.53;4920165;29;20142;-70
2023/05/03 05:16:27;;;;;;;11.75;1.85;;;;;;;13.93;40.96;99512.16;4935817;29;20543;-70
2023/05/03 05:18:54;;;;;;;3.33;1.50;;;;;;;14.15;40.18;99513.91;4919853;29;20474;-69
2023/05/03 05:21:23;;;;;;;4.60;1.85;;;;;;;13.87;40.57;99496.88;4920963;28;20470;-70
2023/05/03 05:23:49;;;;;;;8.25;1.42;;;;;;;14.30;39.63;99514.78;4957997;28;20151;-70
2023/05/03 05:26:15;;;;;;;4.90;1.52;;;;;;;14.28;39.31;99511.47;4958597;28;20066;-70
2023/05/03 05:28:42;;;;;;;2.58;1.70;;;;;;;14.28;39.60;99514.97;4999940;28;20439;-70
2023/05/03 05:31:09;;;;;;;4.45;1.50;;;;;;;14.48;39.29;99520.59;5016436;28;20045;-70
2023/05/03 05:33:35;;;;;;;3.25;1.52;;;;;;;14.52;39.57;99520.03;5000282;28;20048;-70
2023/05/03 05:36:02;;;;;;;2.78;1.75;;;;;;;14.55;39.29;99522.31;4999692;28;20034;-70
2023/05/03 05:38:30;;;;;;;6.25;1.90;;;;;;;14.60;39.01;99527.09;5048153;28;20059;-70
2023/05/03 05:40:58;;;;;;;4.38;1.30;;;;;;;14.79;38.77;99529.22;5024458;28;20501;-70
2023/05/03 05:43:25;;;;;;;5.88;1.40;;;;;;;14.59;38.51;99522.78;5024009;28;20059;-70
2023/05/03 05:45:51;;;;;;;2.40;1.30;;;;;;;14.81;38.38;99519.97;5056753;28;20059;-70
2023/05/03 05:48:18;;;;;;;9.25;2.22;;;;;;;14.96;38.66;99525.31;5040531;28;20171;-70
2023/05/03 05:50:45;;;;;;;7.10;1.75;;;;;;;14.87;38.86;99521.06;5040037;28;20482;-70
2023/05/03 05:53:12;;;;;;;5.72;2.20;;;;;;;14.80;38.39;99515.66;5040439;28;20048;-70
2023/05/03 05:55:43;;;;;;;;;;;;;;;15.44;37.83;99535.28;5025643;28;20040;-71
2023/05/03 05:58:11;;;;;;;5.68;1.90;;;;;;;15.15;38.27;99522.84;5040122;28;19921;-70
2023/05/03 06:00:42;;;;;;;5.63;1.77;;;;;;;15.44;37.66;99529.94;5024845;28;20445;-70
2023/05/03 06:03:08;;;;;;;7.32;1.80;;;;;;;15.62;37.44;99537.53;5056611;28;20475;-70
2023/05/03 06:05:35;;;;;;;4.70;1.83;;;;;;;15.94;37.24;99531.59;5023435;28;20055;-70
2023/05/03 06:08:01;;;;;;;5.97;2.22;;;;;;;16.40;36.02;99546.16;5023326;28;20044;-70
2023/05/03 06:10:27;;;;;;;2.97;1.90;;;;;;;16.70;34.79;99531.47;5039885;28;20052;-70
2023/05/03 06:12:55;;;;;;;8.60;2.10;;;;;;;16.69;34.95;99525.31;5023849;28;20048;-70
2023/05/03 06:15:23;;;;;;;7.55;1.65;;;;;;;16.55;34.05;99562.97;5040432;28;20067;-70
2023/05/03 06:17:49;;;;;;;4.63;1.52;;;;;;;16.58;34.13;99535.75;5072583;28;20475;-70
2023/05/03 06:20:17;;;;;;;8.88;1.95;;;;;;;16.50;34.77;99533.22;5023250;28;20086;-70
2023/05/03 06:22:43;;;;;;;6.47;2.15;;;;;;;16.52;34.80;99520.47;5039634;28;20067;-70
2023/05/03 06:25:12;;;;;;;4.15;1.85;;;;;;;16.44;34.70;99550.09;5023337;28;20056;-72
2023/05/03 06:27:41;;;;;;;3.55;1.95;;;;;;;16.38;34.05;99527.56;5023791;28;20044;-71
2023/05/03 06:30:09;;;;;;;5.15;1.90;;;;;;;16.46;34.24;99548.06;5039337;28;20044;-70
2023/05/03 06:32:38;;;;;;;4.25;1.80;;;;;;;16.66;33.99;99551.69;5023144;28;20560;-70
2023/05/03 06:35:06;;;;;;;3.13;1.80;;;;;;;16.74;33.66;99540.78;5023285;28;20060;-71
2023/05/03 06:37:32;;;;;;;7.43;2.30;;;;;;;16.49;33.60;99537.78;5039174;28;20048;-70
2023/05/03 06:39:58;;;;;;;4.07;1.88;;;;;;;16.27;33.45;99541.53;5038918;28;20049;-70
2023/05/03 06:42:24;;;;;;;4.88;1.90;;;;;;;16.35;33.01;99578.06;5039052;28;20040;-70
2023/05/03 06:45:02;;;;;;;4.78;2.03;;;;;;;16.46;33.01;99551.59;5040693;28;20044;-70
2023/05/03 06:47:30;;;;;;;4.35;1.80;;;;;;;16.58;32.86;99543.78;5039267;28;20044;-70
2023/05/03 06:49:56;;;;;;;8.23;2.30;;;;;;;16.88;32.74;99546.00;5022559;28;20041;-70
2023/05/03 06:52:22;;;;;;;7.72;1.80;;;;;;;16.76;32.13;99544.91;5038859;28;20052;-70
2023/05/03 06:54:48;;;;;;;5.80;2.15;;;;;;;16.88;32.13;99543.31;5039479;28;20055;-70
2023/05/03 06:57:14;;;;;;;3.10;1.70;;;;;;;17.00;32.19;99557.00;5038724;28;20041;-70
2023/05/03 06:59:40;;;;;;;6.25;1.92;;;;;;;17.14;32.06;99550.66;5050885;28;20048;-70
2023/05/03 07:02:06;;;;;;;10.30;1.90;;;;;;;17.25;31.89;99551.91;5017348;28;20056;-70
2023/05/03 07:04:32;;;;;;;5.72;2.00;;;;;;;17.33;31.77;99541.00;5017796;28;20151;-70
2023/05/03 07:06:58;;;;;;;13.95;2.88;;;;;;;17.55;31.42;99546.00;5017819;28;20083;-70
2023/05/03 07:09:25;;;;;;;8.75;2.35;;;;;;;17.46;31.88;99552.59;5034035;28;20056;-70
2023/05/03 07:11:50;;;;;;;6.93;1.98;;;;;;;17.73;31.60;99558.81;5050866;28;20084;-70
2023/05/03 07:14:16;;;;;;;6.10;2.67;;;;;;;17.73;31.71;99575.78;5017655;28;20096;-71
2023/05/03 07:16:42;;;;;;;6.40;2.00;;;;;;;17.70;31.38;99570.81;5017886;28;20037;-70
2023/05/03 07:19:08;;;;;;;7.05;2.20;;;;;;;17.91;31.55;99565.25;5033924;28;20424;-70
2023/05/03 07:21:35;;;;;;;6.80;2.50;;;;;;;18.44;30.82;99566.06;5050578;28;20051;-70
2023/05/03 07:24:01;;;;;;;7.22;1.90;;;;;;;18.57;30.86;99565.19;5033761;28;20049;-70
2023/05/03 07:26:27;;;;;;;6.85;2.10;;;;;;;18.80;30.35;99574.47;5033872;28;20075;-70
2023/05/03 07:28:53;;;;;;;8.07;2.10;;;;;;;18.62;30.24;99571.59;5033935;28;20057;-70
2023/05/03 07:31:23;;;;;;;3.30;1.90;;;;;;;18.78;30.53;99567.63;5033728;28;20048;-70
2023/05/03 07:33:50;;;;;;;8.80;1.85;;;;;;;18.58;30.21;99564.16;5055051;28;20048;-70
2023/05/03 07:36:16;;;;;;;7.85;2.05;;;;;;;18.43;30.61;99564.41;5054825;28;20098;-72
2023/05/03 07:38:42;;;;;;;6.43;2.00;;;;;;;18.30;30.66;99572.47;5021904;28;20461;-71
2023/05/03 07:41:09;;;;;;;9.55;2.60;;;;;;;17.99;31.89;99589.22;5054542;28;20143;-70
2023/05/03 07:43:36;;;;;;;9.95;2.45;;;;;;;17.74;31.81;99580.13;5021817;28;20098;-70
2023/05/03 07:46:02;;;;;;;7.43;2.47;;;;;;;17.64;32.59;99579.69;5037925;28;20044;-70
2023/05/03 07:48:28;;;;;;;4.07;2.00;;;;;;;17.47;32.99;99567.69;5054372;28;20044;-70
2023/05/03 07:50:54;;;;;;;6.82;2.00;;;;;;;17.21;33.28;99570.28;5021583;28;20532;-70
2023/05/03 07:53:19;;;;;;;4.03;2.25;;;;;;;17.50;33.48;99595.97;5037824;28;20130;-70
2023/05/03 07:55:46;;;;;;;4.60;2.45;;;;;;;17.76;33.36;99594.16;5038450;28;20098;-72
2023/05/03 07:58:12;;;;;;;9.23;2.53;;;;;;;17.68;33.10;99604.28;5054775;28;20076;-70
2023/05/03 08:00:38;;;;;;;7.03;2.08;;;;;;;17.68;33.12;99610.47;5020134;28;20090;-70
2023/05/03 08:03:05;;;;;;;7.93;2.22;;;;;;;17.60;33.28;99615.22;5004135;28;20076;-71
2023/05/03 08:05:31;;;;;;;8.98;2.55;;;;;;;17.46;33.47;99624.28;5020349;28;20056;-70
2023/05/03 08:07:56;;;;;;;7.45;2.22;;;;;;;17.29;33.72;99636.38;5020379;28;20449;-70
2023/05/03 08:10:22;;;;;;;9.15;2.47;;;;;;;17.03;34.58;99652.34;5004032;28;20083;-70
2023/05/03 08:12:48;;;;;;;13.38;2.50;;;;;;;16.96;34.98;99646.13;5021009;28;20148;-70
2023/05/03 08:15:14;;;;;;;10.75;2.42;;;;;;;16.79;35.32;99646.44;5024527;28;20060;-70
2023/05/03 08:17:44;;;;;;;9.70;2.75;;;;;;;17.32;35.56;99641.34;5008178;28;20045;-70
2023/05/03 08:20:11;;;;;;;;;;;;;;;17.47;35.76;99663.50;5041388;28;20059;-70
2023/05/03 08:22:39;;;;;;;8.95;2.60;;;;;;;16.93;36.80;99643.84;5024341;28;19924;-70
2023/05/03 08:25:06;;;;;;;7.30;2.60;;;;;;;16.67;37.35;99647.19;5040731;28;20672;-70
2023/05/03 08:27:33;;;;;;;15.05;2.65;;;;;;;16.30;38.20;99648.34;5024244;28;20095;-70
2023/05/03 08:30:00;;;;;;;13.40;2.70;;;;;;;16.04;39.15;99656.16;5008136;28;20048;-69
2023/05/03 08:32:27;;;;;;;5.18;3.00;;;;;;;15.98;39.69;99646.22;5025440;28;20509;-70
2023/05/03 08:34:53;;;;;;;19.60;3.40;;;;;;;15.90;40.51;99649.00;5024920;28;20063;-70
2023/05/03 08:37:19;;;;;;;8.18;3.05;;;;;;;15.93;41.57;99648.63;5041491;28;20387;-70
2023/05/03 08:39:46;;;;;;;10.32;3.30;;;;;;;15.82;42.80;99659.84;5041654;28;20055;-70
2023/05/03 08:42:12;;;;;;;8.32;2.80;;;;;;;15.50;44.29;99664.88;5041331;28;20056;-70
2023/05/03 08:44:46;;;;;;;7.32;2.92;;;;;;;15.74;48.15;99649.28;5058176;28;20044;-70
2023/05/03 08:47:16;;;;;;;8.50;2.92;;;;;;;15.44;49.32;99642.34;5041714;28;20470;-70
2023/05/03 08:49:43;;;;;;;3.80;2.55;;;;;;;15.40;50.11;99627.69;5041329;28;20044;-70
2023/05/03 08:52:10;;;;;;;6.63;2.78;;;;;;;15.49;49.02;99641.78;5041256;28;20120;-71
2023/05/03 08:54:37;;;;;;;7.68;3.08;;;;;;;15.60;50.91;99633.25;5041447;28;20048;-70
2023/05/03 08:57:03;;;;;;;5.80;2.60;;;;;;;16.07;49.20;99642.38;5024641;28;20041;-71
2023/05/03 08:59:29;;;;;;;10.18;2.63;;;;;;;16.17;47.70;99634.00;5040941;28;20032;-70
2023/05/03 09:01:54;;;;;;;7.93;2.80;;;;;;;16.47;46.59;99647.06;5041088;28;20471;-70
2023/05/03 09:04:31;;;;;;;10.23;2.70;;;;;;;16.96;45.33;99659.56;5040953;28;20041;-71
2023/05/03 09:07:10;;;;;;;7.63;2.83;;;;;;;16.74;44.65;99675.69;5041193;28;20166;-70
2023/05/03 09:09:36;;;;;;;7.03;3.08;;;;;;;16.25;45.51;99661.47;5024535;28;20047;-70
2023/05/03 09:12:03;;;;;;;9.68;3.00;;;;;;;16.15;46.37;99665.53;5057334;28;20036;-70
2023/05/03 09:14:30;;;;;;;6.25;2.72;;;;;;;16.17;45.71;99666.16;5024409;28;20182;-70
2023/05/03 09:17:12;;;;;;;6.18;2.75;;;;;;;16.34;46.64;99656.81;5024500;28;20040;-70
2023/05/03 09:19:56;;;;;;;7.68;3.10;;;;;;;16.21;46.35;99662.91;5024261;28;20043;-69
2023/05/03 09:22:26;;;;;;;7.45;2.85;;;;;;;15.94;46.63;99639.59;5040700;28;20048;-70
2023/05/03 09:24:56;;;;;;;8.35;2.90;;;;;;;16.28;46.72;99668.31;5039975;28;20052;-69
2023/05/03 09:27:23;;;;;;;10.68;3.72;;;;;;;15.94;49.08;99666.38;5040716;28;20105;-71
2023/05/03 09:29:49;;;;;;;6.00;3.17;;;;;;;15.67;51.27;99672.47;5057348;28;20044;-70
2023/05/03 09:32:16;;;;;;;8.98;3.25;;;;;;;15.42;52.01;99667.66;5024069;28;20067;-70
2023/05/03 09:34:44;;;;;;;8.18;3.15;;;;;;;15.30;53.53;99677.16;5040341;28;20060;-70
2023/05/03 09:37:15;;;;;;;10.38;3.80;;;;;;;15.35;54.30;99672.88;5024360;28;20138;-71
2023/05/03 09:39:43;;;;;;;11.13;3.80;;;;;;;15.30;54.56;99671.81;5041033;28;20412;-71
2023/05/03 09:42:15;;;;;;;9.48;3.45;;;;;;;15.24;55.02;99662.66;5023881;28;20048;-70
2023/05/03 09:44:47;;;;;;;6.95;3.70;;;;;;;15.17;55.43;99667.94;5024122;28;20044;-70
2023/05/03 09:47:14;;;;;;;8.10;3.90;;;;;;;14.86;55.50;99663.81;5073593;28;20036;-70
2023/05/03 09:49:41;;;;;;;11.13;4.53;;;;;;;14.96;56.02;99685.75;5023856;28;20041;-70
2023/05/03 09:52:09;;;;;;;10.15;3.55;;;;;;;14.86;56.02;99679.84;5038933;28;20044;-70
2023/05/03 09:54:37;;;;;;;9.88;3.70;;;;;;;15.13;56.15;99677.34;5002854;28;20057;-69
2023/05/03 09:57:04;;;;;;;8.70;3.72;;;;;;;15.25;55.97;99683.88;5002870;28;20151;-70
2023/05/03 09:59:32;;;;;;;7.32;3.88;;;;;;;15.42;56.21;99686.38;5002690;28;20083;-70
2023/05/03 10:02:01;;;;;;;5.28;3.65;;;;;;;15.91;54.87;99674.78;5002832;28;20396;-70
2023/05/03 10:04:37;;;;;;;7.03;3.20;;;;;;;16.67;51.08;99677.53;4987160;28;20550;-69
2023/05/03 10:07:12;;;;;;;5.40;3.17;;;;;;;17.30;48.73;99686.38;5018936;28;20044;-70
2023/05/03 10:09:41;;;;;;;5.50;2.83;;;;;;;17.23;47.09;99698.91;4983296;28;20119;-70
2023/05/03 10:12:10;;;;;;;6.97;2.88;;;;;;;17.23;46.69;99704.28;4983012;28;20155;-71
2023/05/03 10:14:44;;;;;;;5.50;3.05;;;;;;;17.94;45.36;99701.88;4959865;28;20090;-70
2023/05/03 10:17:18;;;;;;;6.05;3.30;;;;;;;18.19;44.34;99692.22;4973507;28;20122;-71
2023/05/03 10:19:52;;;;;;;9.25;3.15;;;;;;;18.62;43.14;99694.53;4928055;28;20173;-78
2023/05/03 10:22:18;;;;;;;8.77;3.03;;;;;;;19.05;40.71;99714.56;4976048;28;20084;-70
2023/05/03 10:25:01;;;;;;;6.28;3.08;;;;;;;19.56;40.18;99697.41;4991753;28;20050;-70
2023/05/03 10:27:50;;;;;;;6.93;3.28;;;;;;;19.54;40.58;99691.41;4975170;28;20050;-68
2023/05/03 10:30:38;;;;;;;9.48;3.55;;;;;;;20.31;39.74;99703.88;4975810;28;20050;-70
2023/05/03 10:33:29;;;;;;;7.57;3.13;;;;;;;21.33;37.03;99691.47;4977972;28;20152;-71
2023/05/03 10:35:56;;;;;;;5.28;3.00;;;;;;;21.30;36.18;99689.22;4994487;28;20149;-70
2023/05/03 10:38:28;;;;;;;10.27;3.25;;;;;;;20.95;36.26;99707.03;4995564;28;20447;-70
2023/05/03 10:40:55;;;;;;;6.18;3.63;;;;;;;20.51;37.84;99688.34;4991440;28;20053;-71
2023/05/03 10:43:33;;;;;;;7.32;3.08;;;;;;;20.53;37.85;99687.06;5031664;28;20057;-70
2023/05/03 10:46:03;;;;;;;4.70;2.90;;;;;;;20.67;37.59;99693.16;5014936;28;20567;-69
2023/05/03 10:48:38;;;;;;;7.13;3.00;;;;;;;21.00;36.69;99699.13;5028222;28;20053;-71
2023/05/03 10:51:29;;;;;;;5.80;2.75;;;;;;;20.76;37.10;99691.84;5018194;28;20139;-71
2023/05/03 10:53:56;;;;;;;8.15;3.25;;;;;;;20.51;37.95;99681.06;5014610;28;20064;-71
2023/05/03 10:56:22;;;;;;;4.85;3.22;;;;;;;20.88;36.64;99673.88;4998591;28;20061;-70
2023/05/03 10:58:54;;;;;;;6.32;2.50;;;;;;;21.50;34.74;99697.91;5002796;28;20057;-71
2023/05/03 11:01:25;;;;;;;5.22;2.50;;;;;;;22.18;33.75;99683.06;5038525;28;20398;-71
2023/05/03 11:04:08;;;;;;;8.45;2.60;;;;;;;22.46;32.83;99685.97;5005559;28;20106;-73
2023/05/03 11:06:39;;;;;;;5.80;2.30;;;;;;;22.60;32.50;99671.16;5021085;28;20060;-70
2023/05/03 11:09:10;;;;;;;6.22;3.08;;;;;;;23.68;31.36;99676.81;5005349;28;20063;-70
2023/05/03 11:11:42;;;;;;;4.38;2.20;;;;;;;22.84;31.36;99682.81;5038568;28;20056;-70
2023/05/03 11:14:09;;;;;;;7.63;2.40;;;;;;;22.10;31.75;99680.69;5011304;28;20050;-71
2023/05/03 11:16:39;;;;;;;4.90;2.13;;;;;;;21.41;32.64;99658.75;4978615;28;20078;-70
2023/05/03 11:19:05;;;;;;;4.22;2.15;;;;;;;21.66;32.12;99686.50;4994359;28;20060;-70
2023/05/03 11:21:32;;;;;;;8.82;2.05;;;;;;;21.39;32.79;99656.28;4978371;28;20046;-70
2023/05/03 11:24:01;;;;;;;6.90;2.80;;;;;;;21.23;33.07;99645.25;4964644;28;20484;-71
2023/05/03 11:26:27;;;;;;;4.82;2.38;;;;;;;21.14;33.47;99635.81;4981743;28;20049;-72
2023/05/03 11:28:54;;;;;;;4.88;2.10;;;;;;;20.62;33.69;99661.44;4998038;28;20061;-70
2023/05/03 11:31:22;;;;;;;6.50;2.40;;;;;;;20.84;33.85;99654.59;4998449;28;20140;-71
2023/05/03 11:33:48;;;;;;;5.15;1.95;;;;;;;20.66;34.00;99648.34;4981261;28;20108;-71
2023/05/03 11:36:15;;;;;;;4.30;1.90;;;;;;;21.15;32.82;99668.00;4943065;28;20390;-71
2023/05/03 11:38:40;;;;;;;8.25;2.50;;;;;;;21.57;32.53;99644.63;4958641;28;20113;-71
2023/05/03 11:41:16;;;;;;;8.13;1.95;;;;;;;21.64;32.24;99658.88;4974725;28;20468;-71
2023/05/03 11:43:50;;;;;;;2.45;2.00;;;;;;;21.06;33.02;99658.56;4914159;29;20060;-72
2023/05/03 11:46:22;;;;;;;4.25;2.13;;;;;;;21.64;32.79;99637.22;4901011;29;20170;-71